Time;durP1;ratioP1;P1;durP2;ratioP2;P2;SDS_P1;SDS_P2;PMS_P1;PMS_P2;Temp;Humidity;BMP_temperature;BMP_pressure;BME280_temperature;BME280_humidity;BME280_pressure;Samples;Min_cycle;Max_cycle;Signal;HPM_P1;HPM_P2
2022/04/19 00:00:32;;;;;;;;;;;21.10;28.40;;;;;;5146763;27;20022;-50
2022/04/19 00:02:58;;;;;;;;;;;21.00;28.60;;;;;;5122802;27;20371;-52
2022/04/19 00:05:24;;;;;;;;;;;21.20;28.40;;;;;;5147035;27;19923;-58
2022/04/19 00:07:50;;;;;;;;;;;20.90;28.60;;;;;;5122931;27;19962;-53
2022/04/19 00:10:16;;;;;;;;;;;21.10;28.30;;;;;;5117697;27;19923;-54
2022/04/19 00:12:43;;;;;;;;;;;20.90;28.50;;;;;;5125448;27;20275;-58
2022/04/19 00:15:09;;;;;;;;;;;21.20;28.10;;;;;;5141254;27;19923;-59
2022/04/19 00:17:35;;;;;;;;;;;20.90;28.30;;;;;;5141290;27;20120;-59
2022/04/19 00:20:01;;;;;;;;;;;21.20;27.90;;;;;;5146722;27;20038;-60
2022/04/19 00:22:28;;;;;;;;;;;20.90;28.20;;;;;;5122482;27;20498;-56
2022/04/19 00:24:55;;;;;;;;;;;21.20;27.80;;;;;;5146451;27;19926;-59
2022/04/19 00:27:20;;;;;;;;;;;20.90;28.00;;;;;;5140941;27;19971;-55
2022/04/19 00:29:47;;;;;;;;;;;21.10;27.70;;;;;;5136007;27;19928;-59
2022/04/19 00:32:14;;;;;;;;;;;20.90;28.00;;;;;;5145867;27;19929;-61
2022/04/19 00:34:40;;;;;;;;;;;21.30;27.50;;;;;;5140878;27;19933;-59
2022/04/19 00:37:06;;;;;;;;;;;20.80;28.00;;;;;;5140924;27;20106;-59
2022/04/19 00:39:32;;;;;;;;;;;21.10;27.60;;;;;;5146184;27;20370;-58
2022/04/19 00:41:57;;;;;;;;;;;20.80;28.00;;;;;;5140775;27;20297;-53
2022/04/19 00:44:23;;;;;;;;;;;21.20;27.60;;;;;;5144699;27;19939;-59
2022/04/19 00:46:49;;;;;;;;;;;20.90;27.90;;;;;;5140195;27;19933;-58
2022/04/19 00:49:17;;;;;;;;;;;21.20;27.60;;;;;;5138120;27;19931;-58
2022/04/19 00:51:46;;;;;;;;;;;20.90;27.90;;;;;;5146119;27;20169;-60
2022/04/19 00:54:13;;;;;;;;;;;21.20;27.50;;;;;;5140832;27;20320;-60
2022/04/19 00:56:40;;;;;;;;;;;21.00;27.70;;;;;;5120717;27;20393;-60
2022/04/19 00:59:05;;;;;;;;;;;21.20;27.50;;;;;;5146166;27;19930;-57
2022/04/19 01:01:31;;;;;;;;;;;21.10;27.70;;;;;;5140709;27;20317;-60
2022/04/19 01:03:58;;;;;;;;;;;21.10;27.60;;;;;;5143459;27;19923;-59
2022/04/19 01:06:24;;;;;;;;;;;21.00;27.90;;;;;;5144743;27;19927;-52
2022/04/19 01:08:50;;;;;;;;;;;21.00;27.70;;;;;;5143322;27;19972;-59
2022/04/19 01:14:02;;;;;;;;;;;21.00;27.70;;;;;;5148282;27;19923;-58
2022/04/19 01:16:28;;;;;;;;;;;21.20;27.60;;;;;;5143867;27;19923;-60
2022/04/19 01:18:54;;;;;;;;;;;21.00;27.70;;;;;;5149401;27;19966;-57
2022/04/19 01:21:20;;;;;;;;;;;21.00;27.80;;;;;;5143767;27;20409;-62
2022/04/19 01:23:46;;;;;;;;;;;21.10;27.60;;;;;;5140628;27;19970;-60
2022/04/19 01:26:11;;;;;;;;;;;21.00;27.70;;;;;;5146927;27;19930;-62
2022/04/19 01:28:37;;;;;;;;;;;21.10;27.60;;;;;;5143539;27;19923;-60
2022/04/19 01:31:04;;;;;;;;;;;21.10;27.70;;;;;;5143906;27;19931;-62
2022/04/19 01:33:30;;;;;;;;;;;21.10;27.70;;;;;;5149222;27;19945;-61
2022/04/19 01:35:56;;;;;;;;;;;21.10;27.80;;;;;;5143720;27;19935;-61
2022/04/19 01:38:22;;;;;;;;;;;21.20;27.60;;;;;;5149112;27;20497;-59
2022/04/19 01:40:48;;;;;;;;;;;21.00;27.90;;;;;;5143518;27;19930;-57
2022/04/19 01:43:13;;;;;;;;;;;21.10;27.80;;;;;;5138535;27;19975;-60
2022/04/19 01:45:40;;;;;;;;;;;21.00;27.90;;;;;;5148163;27;19939;-61
2022/04/19 01:48:07;;;;;;;;;;;21.20;27.60;;;;;;5143226;27;19933;-59
2022/04/19 01:50:33;;;;;;;;;;;20.80;28.20;;;;;;5143351;27;19935;-60
2022/04/19 01:53:00;;;;;;;;;;;21.10;27.90;;;;;;5148843;27;19923;-59
2022/04/19 01:55:26;;;;;;;;;;;20.90;28.50;;;;;;5143328;27;19933;-58
2022/04/19 01:57:52;;;;;;;;;;;21.10;28.20;;;;;;5148682;27;20301;-58
2022/04/19 02:00:18;;;;;;;;;;;21.00;28.40;;;;;;5140944;27;20388;-57
2022/04/19 02:02:44;;;;;;;;;;;21.30;27.90;;;;;;5140373;27;19923;-58
2022/04/19 02:05:10;;;;;;;;;;;20.80;28.30;;;;;;5148406;27;20015;-54
2022/04/19 02:07:39;;;;;;;;;;;21.10;27.80;;;;;;5143043;27;20334;-59
2022/04/19 02:10:06;;;;;;;;;;;20.90;28.10;;;;;;5142915;27;19923;-53
2022/04/19 02:12:31;;;;;;;;;;;21.10;27.70;;;;;;5148356;27;19923;-59
2022/04/19 02:14:57;;;;;;;;;;;21.00;27.80;;;;;;5142591;27;19972;-54
2022/04/19 02:17:23;;;;;;;;;;;21.00;27.70;;;;;;5144280;27;19931;-57
2022/04/19 02:19:56;;;;;;;;;;;21.10;27.60;;;;;;5124349;27;19923;-60
2022/04/19 02:22:22;;;;;;;;;;;21.10;27.50;;;;;;5141886;27;19929;-57
2022/04/19 02:24:48;;;;;;;;;;;21.00;27.70;;;;;;5148209;27;20281;-59
2022/04/19 02:27:15;;;;;;;;;;;21.00;27.50;;;;;;5142849;27;19930;-58
2022/04/19 02:29:41;;;;;;;;;;;21.10;27.60;;;;;;5142653;27;19933;-60
2022/04/19 02:32:06;;;;;;;;;;;21.00;27.70;;;;;;5148185;27;19927;-60
2022/04/19 02:34:33;;;;;;;;;;;20.90;27.80;;;;;;5142796;27;19968;-58
2022/04/19 02:36:58;;;;;;;;;;;21.20;27.50;;;;;;5140073;27;20490;-57
2022/04/19 02:39:24;;;;;;;;;;;21.20;27.50;;;;;;5145182;27;19931;-59
2022/04/19 02:41:52;;;;;;;;;;;21.00;27.70;;;;;;5122481;27;19949;-57
2022/04/19 02:44:17;;;;;;;;;;;21.10;27.40;;;;;;5148093;27;19978;-60
2022/04/19 02:46:43;;;;;;;;;;;20.80;27.80;;;;;;5123936;27;20285;-52
2022/04/19 02:49:09;;;;;;;;;;;21.10;27.30;;;;;;5142321;27;19930;-60
2022/04/19 02:51:35;;;;;;;;;;;21.00;27.30;;;;;;5147539;27;19934;-58
2022/04/19 02:54:00;;;;;;;;;;;21.20;27.00;;;;;;5142303;27;20430;-59
2022/04/19 02:56:26;;;;;;;;;;;20.90;27.30;;;;;;5119196;27;20068;-63
2022/04/19 02:58:52;;;;;;;;;;;21.10;27.10;;;;;;5146680;27;20079;-59
2022/04/19 03:01:18;;;;;;;;;;;20.90;27.40;;;;;;5142227;27;20063;-59
2022/04/19 03:03:44;;;;;;;;;;;21.20;27.10;;;;;;5145891;27;20021;-59
2022/04/19 03:06:10;;;;;;;;;;;20.80;27.60;;;;;;5144368;27;19974;-59
2022/04/19 03:08:36;;;;;;;;;;;21.10;27.20;;;;;;5142186;27;20391;-59
2022/04/19 03:11:02;;;;;;;;;;;20.80;27.50;;;;;;5147459;27;19976;-53
2022/04/19 03:13:28;;;;;;;;;;;21.20;27.20;;;;;;5140177;27;20034;-59
2022/04/19 03:15:54;;;;;;;;;;;21.00;27.30;;;;;;5138286;27;19930;-56
2022/04/19 03:18:20;;;;;;;;;;;21.10;27.10;;;;;;5147271;27;20013;-60
2022/04/19 03:20:46;;;;;;;;;;;21.00;27.30;;;;;;5141728;27;20017;-55
2022/04/19 03:28:41;;;;;;;;;;;21.10;27.20;;;;;;5141828;27;19923;-60
2022/04/19 03:31:07;;;;;;;;;;;21.10;27.30;;;;;;5141842;27;19930;-59
2022/04/19 03:33:36;;;;;;;;;;;21.10;27.20;;;;;;5142144;27;20021;-59
2022/04/19 03:36:05;;;;;;;;;;;21.00;27.30;;;;;;5141612;27;20025;-58
2022/04/19 03:38:30;;;;;;;;;;;21.10;27.30;;;;;;5146926;27;20087;-56
2022/04/19 03:40:56;;;;;;;;;;;21.00;27.40;;;;;;5142070;27;19923;-53
2022/04/19 03:43:22;;;;;;;;;;;20.90;27.50;;;;;;5141609;27;20434;-60
2022/04/19 03:45:48;;;;;;;;;;;21.20;27.30;;;;;;5147041;27;20016;-58
2022/04/19 03:48:14;;;;;;;;;;;21.10;27.50;;;;;;5141600;27;19934;-54
2022/04/19 03:50:40;;;;;;;;;;;21.10;27.30;;;;;;5138513;27;19923;-59
2022/04/19 03:53:06;;;;;;;;;;;20.90;27.60;;;;;;5125947;27;19927;-57
2022/04/19 03:55:32;;;;;;;;;;;21.10;27.30;;;;;;5141326;27;20020;-57
2022/04/19 03:58:01;;;;;;;;;;;20.80;27.70;;;;;;5144117;27;19931;-57
2022/04/19 04:00:27;;;;;;;;;;;21.10;27.20;;;;;;5145878;27;20068;-61
2022/04/19 04:02:53;;;;;;;;;;;20.80;27.60;;;;;;5141321;27;19927;-58
2022/04/19 04:05:19;;;;;;;;;;;21.20;27.20;;;;;;5146908;27;19927;-56
2022/04/19 04:07:45;;;;;;;;;;;20.90;27.40;;;;;;5141258;27;19924;-59
2022/04/19 04:10:10;;;;;;;;;;;21.20;27.20;;;;;;5136446;27;19923;-62
2022/04/19 04:12:36;;;;;;;;;;;21.00;27.40;;;;;;5146210;27;20022;-58
2022/04/19 04:15:02;;;;;;;;;;;21.00;27.50;;;;;;5141674;27;20336;-56
2022/04/19 04:17:28;;;;;;;;;;;21.00;27.50;;;;;;5121437;27;19930;-61
2022/04/19 04:19:54;;;;;;;;;;;21.10;27.30;;;;;;5146636;27;19927;-53
2022/04/19 04:22:19;;;;;;;;;;;21.00;27.50;;;;;;5140984;27;20294;-59
2022/04/19 04:24:45;;;;;;;;;;;21.10;27.40;;;;;;5146519;27;20013;-54
2022/04/19 04:27:11;;;;;;;;;;;21.00;27.40;;;;;;5138616;27;20516;-55
2022/04/19 04:29:37;;;;;;;;;;;21.10;27.40;;;;;;5138367;27;19923;-60
2022/04/19 04:32:03;;;;;;;;;;;21.00;27.30;;;;;;5146179;27;20021;-57
2022/04/19 04:34:29;;;;;;;;;;;21.00;27.40;;;;;;5140909;27;19923;-55
2022/04/19 04:36:55;;;;;;;;;;;21.30;27.10;;;;;;5142146;27;19966;-60
2022/04/19 04:39:20;;;;;;;;;;;20.90;27.50;;;;;;5149972;27;19927;-54
2022/04/19 04:41:46;;;;;;;;;;;21.20;27.20;;;;;;5144726;27;20363;-59
2022/04/19 04:44:12;;;;;;;;;;;20.80;27.70;;;;;;5150077;27;20336;-59
2022/04/19 04:49:39;;;;;;;;;;;21.00;27.30;;;;;;5143944;27;20049;-59
2022/04/19 04:52:11;;;;;;;;;;;21.10;27.20;;;;;;5149273;27;19990;-56
2022/04/19 04:54:37;;;;;;;;;;;20.90;27.40;;;;;;5148028;27;20275;-59
2022/04/19 04:57:03;;;;;;;;;;;21.10;27.20;;;;;;5144618;27;19927;-59
2022/04/19 04:59:30;;;;;;;;;;;21.00;27.10;;;;;;5149904;27;20009;-58
2022/04/19 05:01:56;;;;;;;;;;;21.20;27.00;;;;;;5125709;27;19935;-58
2022/04/19 05:04:22;;;;;;;;;;;21.00;27.20;;;;;;5140855;27;19933;-57
2022/04/19 05:06:47;;;;;;;;;;;21.10;27.00;;;;;;5147455;27;19924;-61
2022/04/19 05:09:13;;;;;;;;;;;21.00;27.20;;;;;;5143894;27;19934;-61
2022/04/19 05:11:39;;;;;;;;;;;21.10;27.00;;;;;;5144049;27;19931;-61
2022/04/19 05:14:05;;;;;;;;;;;20.90;27.20;;;;;;5149391;27;19923;-59
2022/04/19 05:16:31;;;;;;;;;;;21.10;27.10;;;;;;5143957;27;19934;-61
2022/04/19 05:18:57;;;;;;;;;;;21.10;27.20;;;;;;5149289;27;19962;-58
2022/04/19 05:21:23;;;;;;;;;;;21.00;27.20;;;;;;5143669;27;19934;-56
2022/04/19 05:23:48;;;;;;;;;;;21.00;27.40;;;;;;5138730;27;20053;-62
2022/04/19 05:26:14;;;;;;;;;;;21.00;27.30;;;;;;5148730;27;20378;-60
2022/04/19 05:28:40;;;;;;;;;;;21.00;27.60;;;;;;5143759;27;19968;-56
2022/04/19 05:31:06;;;;;;;;;;;21.10;27.20;;;;;;5143674;27;19950;-59
2022/04/19 05:33:31;;;;;;;;;;;21.20;27.10;;;;;;5149021;27;20286;-60
2022/04/19 05:35:57;;;;;;;;;;;21.00;27.20;;;;;;5143526;27;19929;-57
2022/04/19 05:38:23;;;;;;;;;;;21.20;27.00;;;;;;5149201;27;19934;-59
2022/04/19 05:40:49;;;;;;;;;;;20.80;27.50;;;;;;5120527;27;19923;-58
2022/04/19 05:43:14;;;;;;;;;;;21.10;27.20;;;;;;5140892;27;19927;-61
2022/04/19 05:45:40;;;;;;;;;;;21.10;27.30;;;;;;5148671;27;19923;-59
2022/04/19 05:48:06;;;;;;;;;;;20.80;27.80;;;;;;5142598;27;19938;-57
2022/04/19 05:50:32;;;;;;;;;;;21.20;27.40;;;;;;5143468;27;19923;-55
2022/04/19 05:52:58;;;;;;;;;;;21.20;27.60;;;;;;5148694;27;19931;-62
2022/04/19 05:55:24;;;;;;;;;;;21.00;27.70;;;;;;5143390;27;19923;-59
2022/04/19 05:57:50;;;;;;;;;;;20.90;27.80;;;;;;5149036;27;19940;-55
2022/04/19 06:00:15;;;;;;;;;;;21.10;27.60;;;;;;5138243;27;19934;-58
2022/04/19 06:05:26;;;;;;;;;;;21.10;27.50;;;;;;5148508;27;20382;-57
2022/04/19 06:07:52;;;;;;;;;;;21.20;27.40;;;;;;5143390;27;19927;-52
2022/04/19 06:10:18;;;;;;;;;;;20.80;27.80;;;;;;5142948;27;19927;-55
2022/04/19 06:12:44;;;;;;;;;;;21.10;27.60;;;;;;5148398;27;19931;-55
2022/04/19 06:15:13;;;;;;;;;;;21.00;27.70;;;;;;5143215;27;19923;-59
2022/04/19 06:17:40;;;;;;;;;;;21.20;27.60;;;;;;5140484;27;20159;-58
2022/04/19 06:20:06;;;;;;;;;;;20.90;28.00;;;;;;5146205;27;20008;-59
2022/04/19 06:22:32;;;;;;;;;;;20.90;28.00;;;;;;5143153;27;20031;-62
2022/04/19 06:24:58;;;;;;;;;;;21.00;27.80;;;;;;5147615;27;19980;-57
2022/04/19 06:27:24;;;;;;;;;;;20.80;28.00;;;;;;5143968;27;19923;-58
2022/04/19 06:29:52;;;;;;;;;;;21.20;27.60;;;;;;5143023;27;19924;-56
2022/04/19 06:32:18;;;;;;;;;;;20.90;27.90;;;;;;5148326;27;21168;-50
2022/04/19 06:34:44;;;;;;;;;;;21.20;27.40;;;;;;5142876;27;19923;-59
2022/04/19 06:37:09;;;;;;;;;;;21.10;27.70;;;;;;5137633;27;20118;-50
2022/04/19 06:39:35;;;;;;;;;;;21.30;27.40;;;;;;5147322;27;19923;-60
2022/04/19 06:42:01;;;;;;;;;;;21.20;27.60;;;;;;5123751;27;19934;-52
2022/04/19 06:44:27;;;;;;;;;;;21.30;27.40;;;;;;5144074;27;19934;-53
2022/04/19 06:46:53;;;;;;;;;;;21.10;27.70;;;;;;5146532;27;20396;-55
2022/04/19 06:49:18;;;;;;;;;;;21.20;27.60;;;;;;5142676;27;19931;-58
2022/04/19 06:51:44;;;;;;;;;;;21.10;27.90;;;;;;5148015;27;19923;-61
2022/04/19 06:54:11;;;;;;;;;;;21.30;27.60;;;;;;5140103;27;19930;-60
2022/04/19 06:56:38;;;;;;;;;;;21.10;28.00;;;;;;5139338;27;20341;-60
2022/04/19 06:59:03;;;;;;;;;;;21.20;27.80;;;;;;5147698;27;19923;-60
2022/04/19 07:01:29;;;;;;;;;;;21.00;28.10;;;;;;5140972;27;19930;-58
2022/04/19 07:03:55;;;;;;;;;;;21.30;27.80;;;;;;5142240;27;20448;-59
2022/04/19 07:06:21;;;;;;;;;;;21.00;28.10;;;;;;5147508;27;20398;-61
2022/04/19 07:08:47;;;;;;;;;;;21.30;28.00;;;;;;5142338;27;19927;-57
2022/04/19 07:11:15;;;;;;;;;;;21.10;28.10;;;;;;5147615;27;20331;-58
2022/04/19 07:13:41;;;;;;;;;;;21.30;27.90;;;;;;5137370;27;19923;-49
2022/04/19 07:16:07;;;;;;;;;;;21.10;28.30;;;;;;5140811;27;20404;-61
2022/04/19 07:18:33;;;;;;;;;;;21.30;28.10;;;;;;5147186;27;19933;-62
2022/04/19 07:26:47;;;;;;;;;;;21.10;28.40;;;;;;5147440;27;19927;-60
2022/04/19 07:29:14;;;;;;;;;;;21.30;28.10;;;;;;5141662;27;20018;-58
2022/04/19 07:31:40;;;;;;;;;;;21.10;28.40;;;;;;5137979;27;20061;-61
2022/04/19 07:34:06;;;;;;;;;;;21.20;28.30;;;;;;5145611;27;19929;-58
2022/04/19 07:36:33;;;;;;;;;;;21.20;28.30;;;;;;5141813;27;19971;-62
2022/04/19 07:38:59;;;;;;;;;;;21.20;28.40;;;;;;5141805;27;20193;-58
2022/04/19 07:41:25;;;;;;;;;;;21.30;28.40;;;;;;5146996;27;20332;-61
2022/04/19 07:43:51;;;;;;;;;;;21.20;28.50;;;;;;5141376;27;19923;-53
2022/04/19 07:46:18;;;;;;;;;;;21.20;28.60;;;;;;5145528;27;19971;-58
2022/04/19 07:48:44;;;;;;;;;;;21.30;28.30;;;;;;5143233;27;20338;-56
2022/04/19 07:51:13;;;;;;;;;;;21.20;28.50;;;;;;5136553;27;20421;-62
2022/04/19 07:53:39;;;;;;;;;;;21.30;28.30;;;;;;5146710;27;19934;-55
2022/04/19 07:56:05;;;;;;;;;;;21.10;28.80;;;;;;5141497;27;19927;-62
2022/04/19 07:58:30;;;;;;;;;;;21.20;28.60;;;;;;5141294;27;19927;-57
2022/04/19 08:00:56;;;;;;;;;;;21.10;28.70;;;;;;5146795;27;19930;-61
2022/04/19 08:03:22;;;;;;;;;;;21.30;28.40;;;;;;5141743;27;20378;-56
2022/04/19 08:05:48;;;;;;;;;;;21.10;28.50;;;;;;5141447;27;20093;-57
2022/04/19 08:08:14;;;;;;;;;;;21.20;28.50;;;;;;5142802;27;19950;-60
2022/04/19 08:10:39;;;;;;;;;;;21.10;28.90;;;;;;5119807;27;19961;-52
2022/04/19 08:13:05;;;;;;;;;;;21.10;28.90;;;;;;5149906;27;19940;-62
2022/04/19 08:15:31;;;;;;;;;;;21.30;28.70;;;;;;5144903;27;19922;-58
2022/04/19 08:17:57;;;;;;;;;;;21.10;28.80;;;;;;5144731;27;20057;-57
2022/04/19 08:20:23;;;;;;;;;;;21.30;28.60;;;;;;5150261;27;19935;-60
2022/04/19 08:22:49;;;;;;;;;;;21.30;28.50;;;;;;5144710;27;20367;-53
2022/04/19 08:25:15;;;;;;;;;;;21.20;28.60;;;;;;5144396;27;19969;-57
2022/04/19 08:27:42;;;;;;;;;;;21.20;28.50;;;;;;5126411;27;19972;-56
2022/04/19 08:30:08;;;;;;;;;;;21.20;28.50;;;;;;5144333;27;20289;-60
2022/04/19 08:32:34;;;;;;;;;;;21.20;28.10;;;;;;5150377;27;19923;-58
2022/04/19 08:35:00;;;;;;;;;;;21.10;28.00;;;;;;5144867;27;20358;-59
2022/04/19 08:37:32;;;;;;;;;;;21.20;28.10;;;;;;5145207;27;19923;-58
2022/04/19 08:39:57;;;;;;;;;;;21.20;28.30;;;;;;5150000;27;20060;-61
2022/04/19 08:42:24;;;;;;;;;;;21.20;28.10;;;;;;5125861;27;19927;-57
2022/04/19 08:44:50;;;;;;;;;;;21.10;27.70;;;;;;5141157;27;20217;-59
2022/04/19 08:47:16;;;;;;;;;;;21.20;27.40;;;;;;5129067;27;20394;-62
2022/04/19 08:49:42;;;;;;;;;;;21.30;27.20;;;;;;5144296;27;20409;-57
2022/04/19 08:52:07;;;;;;;;;;;21.20;27.20;;;;;;5147517;27;20338;-57
2022/04/19 08:57:30;;;;;;;;;;;21.20;27.20;;;;;;5144080;27;19924;-61
2022/04/19 08:59:55;;;;;;;;;;;21.30;27.40;;;;;;5145745;27;20010;-59
2022/04/19 09:02:22;;;;;;;;;;;21.20;27.60;;;;;;5147367;27;19941;-60
2022/04/19 09:04:52;;;;;;;;;;;21.30;27.50;;;;;;5138868;27;19924;-61
2022/04/19 09:07:18;;;;;;;;;;;21.20;27.70;;;;;;5149359;27;19923;-61
2022/04/19 09:09:56;;;;;;;;;;;21.30;27.70;;;;;;5144122;27;19923;-59
2022/04/19 09:12:22;;;;;;;;;;;21.30;27.80;;;;;;5144165;27;20423;-61
2022/04/19 09:14:53;;;;;;;;;;;21.30;27.60;;;;;;5149447;27;19935;-61
2022/04/19 09:17:21;;;;;;;;;;;21.30;27.60;;;;;;5143762;27;20016;-61
2022/04/19 09:19:47;;;;;;;;;;;21.30;27.50;;;;;;5125411;27;19931;-62
2022/04/19 09:22:24;;;;;;;;;;;21.20;27.60;;;;;;5108793;27;20443;-62
2022/04/19 09:24:49;;;;;;;;;;;21.30;27.40;;;;;;5141856;27;19924;-61
2022/04/19 09:27:17;;;;;;;;;;;21.30;27.50;;;;;;5124999;27;19931;-62
2022/04/19 09:29:42;;;;;;;;;;;21.30;27.40;;;;;;5130432;27;19966;-59
2022/04/19 09:32:11;;;;;;;;;;;21.30;27.30;;;;;;5143385;27;20162;-59
2022/04/19 09:34:38;;;;;;;;;;;21.30;27.20;;;;;;5148668;27;19923;-58
2022/04/19 09:37:06;;;;;;;;;;;21.30;27.00;;;;;;5144361;27;19944;-62
2022/04/19 09:39:34;;;;;;;;;;;21.30;26.90;;;;;;5141081;27;20136;-61
2022/04/19 09:42:01;;;;;;;;;;;21.30;27.10;;;;;;5145554;27;19927;-59
2022/04/19 09:44:29;;;;;;;;;;;21.30;27.40;;;;;;5143385;27;20005;-61
2022/04/19 09:47:04;;;;;;;;;;;21.30;27.00;;;;;;5143292;27;20382;-60
2022/04/19 09:49:40;;;;;;;;;;;21.30;26.30;;;;;;5148957;27;19935;-61
2022/04/19 09:52:06;;;;;;;;;;;21.30;25.80;;;;;;5143269;27;19931;-61
2022/04/19 09:54:32;;;;;;;;;;;21.30;24.90;;;;;;5143279;27;19922;-62
2022/04/19 09:56:59;;;;;;;;;;;21.30;25.00;;;;;;5148909;27;19924;-60
2022/04/19 09:59:25;;;;;;;;;;;21.30;25.60;;;;;;5119320;27;20195;-60
2022/04/19 10:10:04;;;;;;;;;;;21.40;25.00;;;;;;5142963;27;19927;-61
2022/04/19 10:12:31;;;;;;;;;;;21.40;24.60;;;;;;5148718;27;20022;-60
2022/04/19 10:14:57;;;;;;;;;;;21.40;24.10;;;;;;5124518;27;19923;-61
2022/04/19 10:17:22;;;;;;;;;;;21.40;24.10;;;;;;5139181;27;19927;-59
2022/04/19 10:19:49;;;;;;;;;;;21.40;24.30;;;;;;5146902;27;20290;-59
2022/04/19 10:22:14;;;;;;;;;;;21.50;24.20;;;;;;5142747;27;19976;-60
2022/04/19 10:24:43;;;;;;;;;;;21.50;23.70;;;;;;5148249;27;19923;-60
2022/04/19 10:27:10;;;;;;;;;;;21.40;23.40;;;;;;5124489;27;19931;-62
2022/04/19 10:29:37;;;;;;;;;;;21.50;23.10;;;;;;5142834;27;19923;-60
2022/04/19 10:32:03;;;;;;;;;;;21.50;23.10;;;;;;5148385;27;20353;-60
2022/04/19 10:34:30;;;;;;;;;;;21.60;22.80;;;;;;5140530;27;19930;-62
2022/04/19 10:36:58;;;;;;;;;;;21.60;22.70;;;;;;5138433;27;20698;-61
2022/04/19 10:39:24;;;;;;;;;;;21.50;22.90;;;;;;5147820;27;20612;-61
2022/04/19 10:41:55;;;;;;;;;;;21.60;23.00;;;;;;5142580;27;19930;-60
2022/04/19 10:44:31;;;;;;;;;;;21.50;22.80;;;;;;5145478;27;21307;-58
2022/04/19 10:47:04;;;;;;;;;;;21.60;22.70;;;;;;5147892;27;19927;-60
2022/04/19 10:49:30;;;;;;;;;;;21.50;22.70;;;;;;5142215;27;20156;-60
2022/04/19 10:51:59;;;;;;;;;;;21.60;22.60;;;;;;5147761;27;19968;-61
2022/04/19 10:54:45;;;;;;;;;;;21.60;22.80;;;;;;5136958;27;20322;-61
2022/04/19 10:58:05;;;;;;;;;;;21.60;23.10;;;;;;5142112;27;19929;-60
2022/04/19 11:00:21;;;;;;;;;;;21.60;23.10;;;;;;5141592;27;19971;-60
2022/04/19 11:02:57;;;;;;;;;;;21.60;23.20;;;;;;5155743;27;20392;-62
2022/04/19 11:05:41;;;;;;;;;;;21.60;23.40;;;;;;5162364;27;19923;-60
2022/04/19 11:08:26;;;;;;;;;;;21.60;23.70;;;;;;5144646;27;19923;-60
2022/04/19 11:10:51;;;;;;;;;;;21.60;23.80;;;;;;5167442;27;19945;-59
2022/04/19 11:13:21;;;;;;;;;;;21.60;23.80;;;;;;5146942;27;19974;-61
2022/04/19 11:15:59;;;;;;;;;;;21.60;23.80;;;;;;5141703;27;20189;-60
2022/04/19 11:18:25;;;;;;;;;;;21.60;23.60;;;;;;5147372;27;19930;-60
2022/04/19 11:21:12;;;;;;;;;;;21.70;23.50;;;;;;5123553;27;20010;-60
2022/04/19 11:23:41;;;;;;;;;;;21.80;23.40;;;;;;5141947;27;19933;-60
2022/04/19 11:26:10;;;;;;;;;;;21.80;23.30;;;;;;5147191;27;19982;-59
2022/04/19 11:28:36;;;;;;;;;;;21.80;23.40;;;;;;5141786;27;19923;-61
2022/04/19 11:31:01;;;;;;;;;;;21.80;23.70;;;;;;5118217;27;20076;-60
2022/04/19 11:33:34;;;;;;;;;;;21.80;23.50;;;;;;5146281;27;19942;-59
2022/04/19 11:36:07;;;;;;;;;;;21.70;23.30;;;;;;5141740;27;19930;-60
2022/04/19 11:38:34;;;;;;;;;;;21.80;23.00;;;;;;5145914;27;19945;-60
2022/04/19 11:46:44;;;;;;;;;;;21.80;22.70;;;;;;5151153;27;19923;-60
2022/04/19 11:49:16;;;;;;;;;;;21.80;22.90;;;;;;5159759;27;19933;-60
2022/04/19 11:51:52;;;;;;;;;;;21.80;22.90;;;;;;5161014;27;20292;-59
2022/04/19 11:54:18;;;;;;;;;;;21.80;22.60;;;;;;5162303;27;20529;-59
2022/04/19 11:56:44;;;;;;;;;;;21.80;22.80;;;;;;5167879;27;20057;-59
2022/04/19 11:59:10;;;;;;;;;;;21.80;22.90;;;;;;5162064;27;20285;-62
2022/04/19 12:01:36;;;;;;;;;;;21.80;22.70;;;;;;5167431;27;19922;-61
2022/04/19 12:04:11;;;;;;;;;;;21.80;22.50;;;;;;5162234;27;19922;-61
2022/04/19 12:06:36;;;;;;;;;;;21.90;22.40;;;;;;5159316;27;20388;-60
2022/04/19 12:09:02;;;;;;;;;;;22.00;22.40;;;;;;5164036;27;19922;-60
2022/04/19 12:11:28;;;;;;;;;;;22.00;22.50;;;;;;5124526;27;20408;-60
2022/04/19 12:13:54;;;;;;;;;;;22.00;22.60;;;;;;5157925;27;19923;-61
2022/04/19 12:16:30;;;;;;;;;;;21.90;22.70;;;;;;5167536;27;20412;-62
2022/04/19 12:19:03;;;;;;;;;;;21.90;23.00;;;;;;5162092;27;19922;-60
2022/04/19 12:21:38;;;;;;;;;;;21.90;23.30;;;;;;5161663;27;19927;-60
2022/04/19 12:24:22;;;;;;;;;;;21.90;23.40;;;;;;5167286;27;19923;-61
2022/04/19 12:26:48;;;;;;;;;;;21.80;23.00;;;;;;5157063;27;19927;-61
2022/04/19 12:29:16;;;;;;;;;;;21.90;23.00;;;;;;5161568;27;20013;-60
2022/04/19 12:31:44;;;;;;;;;;;21.90;23.00;;;;;;5167341;27;19933;-61
2022/04/19 12:34:11;;;;;;;;;;;21.90;23.10;;;;;;5161560;27;19923;-60
2022/04/19 12:36:41;;;;;;;;;;;21.90;23.20;;;;;;5165644;27;20300;-58
2022/04/19 12:39:07;;;;;;;;;;;22.00;23.20;;;;;;5165429;27;19937;-59
2022/04/19 12:41:45;;;;;;;;;;;22.10;23.30;;;;;;5161764;27;19971;-59
2022/04/19 12:44:14;;;;;;;;;;;22.00;23.10;;;;;;5162617;27;19923;-59
2022/04/19 12:46:44;;;;;;;;;;;22.20;22.90;;;;;;5160483;27;19923;-60
2022/04/19 12:49:25;;;;;;;;;;;22.10;23.10;;;;;;5161690;27;19933;-60
2022/04/19 12:51:58;;;;;;;;;;;22.00;23.20;;;;;;5167101;27;20013;-61
2022/04/19 12:54:30;;;;;;;;;;;22.10;23.00;;;;;;5161480;27;19931;-60
2022/04/19 12:57:03;;;;;;;;;;;22.00;23.00;;;;;;5161491;27;20006;-60
2022/04/19 12:59:29;;;;;;;;;;;22.10;23.10;;;;;;5170646;27;20284;-61
2022/04/19 13:01:55;;;;;;;;;;;22.10;22.90;;;;;;5161730;27;19929;-58
2022/04/19 13:04:21;;;;;;;;;;;22.10;22.90;;;;;;5143729;27;19944;-62
2022/04/19 13:12:19;;;;;;;;;;;22.10;22.90;;;;;;5164917;27;19926;-62
2022/04/19 13:14:49;;;;;;;;;;;22.10;22.80;;;;;;5166279;27;19929;-61
2022/04/19 13:17:15;;;;;;;;;;;22.20;22.90;;;;;;5164950;27;19947;-59
2022/04/19 13:19:45;;;;;;;;;;;22.20;22.90;;;;;;5163680;27;20337;-58
2022/04/19 13:22:11;;;;;;;;;;;22.20;23.00;;;;;;5165680;27;20336;-60
2022/04/19 13:24:38;;;;;;;;;;;22.10;23.10;;;;;;5164650;27;20279;-61
2022/04/19 13:27:04;;;;;;;;;;;22.20;22.70;;;;;;5165671;27;20312;-57
2022/04/19 13:29:30;;;;;;;;;;;22.20;22.50;;;;;;5169951;27;19932;-59
2022/04/19 13:31:56;;;;;;;;;;;22.20;22.40;;;;;;5164628;27;19991;-60
2022/04/19 13:34:22;;;;;;;;;;;22.30;22.50;;;;;;5169989;27;19926;-60
2022/04/19 13:36:48;;;;;;;;;;;22.30;22.80;;;;;;5164570;27;20029;-61
2022/04/19 13:39:14;;;;;;;;;;;22.30;23.00;;;;;;5160357;27;19926;-61
2022/04/19 13:41:41;;;;;;;;;;;22.30;23.00;;;;;;5167963;27;19926;-61
2022/04/19 13:44:10;;;;;;;;;;;22.40;23.00;;;;;;5164432;27;20342;-61
2022/04/19 13:46:36;;;;;;;;;;;22.30;22.90;;;;;;5164333;27;20186;-61
2022/04/19 13:49:02;;;;;;;;;;;22.40;22.90;;;;;;5169816;27;19922;-61
2022/04/19 13:51:28;;;;;;;;;;;22.40;22.80;;;;;;5164106;27;20047;-62
2022/04/19 13:53:54;;;;;;;;;;;22.50;22.70;;;;;;5169637;27;19927;-60
2022/04/19 13:56:20;;;;;;;;;;;22.40;22.90;;;;;;5163556;27;19927;-59
2022/04/19 13:58:45;;;;;;;;;;;22.50;22.90;;;;;;5159186;27;19922;-61
2022/04/19 14:01:12;;;;;;;;;;;22.40;23.10;;;;;;5169311;27;20449;-61
2022/04/19 14:03:38;;;;;;;;;;;22.50;23.20;;;;;;5164200;27;20018;-59
2022/04/19 14:06:03;;;;;;;;;;;22.50;23.40;;;;;;5163942;27;20279;-61
2022/04/19 14:08:29;;;;;;;;;;;22.40;23.80;;;;;;5169440;27;19946;-60
2022/04/19 14:10:58;;;;;;;;;;;22.30;24.00;;;;;;5163391;27;19927;-60
2022/04/19 14:13:24;;;;;;;;;;;22.30;24.30;;;;;;5149492;27;20341;-59
2022/04/19 14:15:51;;;;;;;;;;;22.30;24.40;;;;;;5162404;27;19946;-60
2022/04/19 14:18:18;;;;;;;;;;;22.30;24.50;;;;;;5161755;27;19966;-60
2022/04/19 14:20:43;;;;;;;;;;;22.30;24.60;;;;;;5132418;27;19930;-61
2022/04/19 14:23:09;;;;;;;;;;;22.40;24.70;;;;;;5163731;27;20297;-60
2022/04/19 14:25:35;;;;;;;;;;;22.40;24.70;;;;;;5163688;27;19923;-60
2022/04/19 14:28:01;;;;;;;;;;;22.40;24.90;;;;;;5169133;27;20388;-59
2022/04/19 14:33:18;;;;;;;;;;;22.50;24.70;;;;;;5162561;27;19933;-59
2022/04/19 14:35:45;;;;;;;;;;;22.50;24.90;;;;;;5147436;27;19967;-60
2022/04/19 14:38:11;;;;;;;;;;;22.50;24.80;;;;;;5163228;27;19929;-60
2022/04/19 14:40:37;;;;;;;;;;;22.50;24.70;;;;;;5163916;27;19954;-58
2022/04/19 14:43:02;;;;;;;;;;;22.60;24.60;;;;;;5168639;27;19926;-59
2022/04/19 14:45:28;;;;;;;;;;;22.60;24.90;;;;;;5143502;27;19974;-60
2022/04/19 14:47:54;;;;;;;;;;;22.50;25.10;;;;;;5168648;27;19930;-59
2022/04/19 14:50:20;;;;;;;;;;;22.60;24.90;;;;;;5163232;27;19923;-60
2022/04/19 14:52:47;;;;;;;;;;;22.50;24.70;;;;;;5139097;27;20982;-60
2022/04/19 14:55:14;;;;;;;;;;;22.50;24.60;;;;;;5166914;27;19927;-60
2022/04/19 14:57:40;;;;;;;;;;;22.50;24.50;;;;;;5159185;27;19933;-59
2022/04/19 15:00:06;;;;;;;;;;;22.50;24.50;;;;;;5163229;27;19931;-60